createdAt,value
2022-07-29T00:01:51.392Z,7.15
2022-07-29T00:04:21.457Z,7.32
2022-07-29T00:09:22.063Z,7.05
2022-07-29T00:11:50.597Z,7.13
2022-07-29T00:14:25.608Z,6.70
2022-07-29T00:16:57.691Z,6.90
2022-07-29T00:19:25.558Z,6.85
2022-07-29T00:21:59.072Z,6.47
2022-07-29T00:24:27.394Z,6.80
2022-07-29T00:26:55.197Z,6.72
2022-07-29T00:29:38.398Z,6.78
2022-07-29T00:32:07.677Z,6.68
2022-07-29T00:34:36.741Z,6.63
2022-07-29T00:37:09.868Z,6.95
2022-07-29T00:42:09.387Z,7.57
2022-07-29T00:44:40.953Z,6.80
2022-07-29T00:47:11.939Z,6.80
2022-07-29T00:49:42.937Z,6.80
2022-07-29T00:52:17.045Z,6.43
2022-07-29T00:54:45.635Z,6.50
2022-07-29T00:57:17.008Z,6.70
2022-07-29T00:59:51.776Z,6.47
2022-07-29T01:02:23.393Z,6.70
2022-07-29T01:04:54.785Z,6.90
2022-07-29T01:10:00.265Z,6.40
2022-07-29T01:12:36.884Z,6.35
2022-07-29T01:15:09.619Z,6.47
2022-07-29T01:17:52.486Z,6.80
2022-07-29T01:26:14.818Z,6.43
2022-07-29T01:29:07.604Z,6.55
2022-07-29T01:31:58.508Z,6.43
2022-07-29T01:34:31.858Z,6.20
2022-07-29T01:37:08.083Z,6.35
2022-07-29T01:39:45.787Z,6.57
2022-07-29T01:42:25.968Z,6.20
2022-07-29T01:47:41.997Z,6.22
2022-07-29T01:50:12.055Z,6.35
2022-07-29T01:52:46.765Z,5.88
2022-07-29T01:55:18.020Z,5.93
2022-07-29T01:57:49.284Z,6.18
2022-07-29T02:00:23.941Z,5.80
2022-07-29T02:02:57.239Z,6.10
2022-07-29T02:05:26.142Z,5.90
2022-07-29T02:07:55.748Z,6.28
2022-07-29T02:10:28.358Z,6.00
2022-07-29T02:13:00.245Z,6.33
2022-07-29T02:15:33.962Z,5.88
2022-07-29T02:18:06.414Z,6.55
2022-07-29T02:20:38.988Z,6.43
2022-07-29T02:23:09.224Z,5.90
2022-07-29T02:30:49.045Z,5.97
2022-07-29T02:33:18.900Z,6.20
2022-07-29T02:38:38.735Z,6.13
2022-07-29T02:41:12.045Z,6.07
2022-07-29T02:43:42.755Z,6.10
2022-07-29T02:46:29.516Z,6.03
2022-07-29T02:49:06.313Z,6.15
2022-07-29T02:51:45.872Z,6.15
2022-07-29T02:54:17.307Z,6.40
2022-07-29T02:56:49.607Z,6.60
2022-07-29T02:59:21.032Z,6.35
2022-07-29T03:01:49.961Z,6.70
2022-07-29T03:06:56.576Z,6.13
2022-07-29T03:09:29.704Z,6.93
2022-07-29T03:11:59.244Z,6.20
2022-07-29T03:14:30.087Z,6.28
2022-07-29T03:17:01.181Z,6.40
2022-07-29T03:21:58.675Z,6.40
2022-07-29T03:24:29.882Z,6.72
2022-07-29T03:26:59.072Z,6.32
2022-07-29T03:29:33.884Z,6.80
2022-07-29T03:32:08.573Z,7.40
2022-07-29T03:34:39.830Z,7.30
2022-07-29T03:37:11.191Z,7.63
2022-07-29T03:39:43.347Z,7.40
2022-07-29T03:42:15.262Z,7.35
2022-07-29T03:44:47.991Z,7.75
2022-07-29T03:47:17.223Z,7.88
2022-07-29T03:49:50.216Z,8.18
2022-07-29T03:57:35.157Z,8.10
2022-07-29T04:00:08.029Z,8.52
2022-07-29T04:02:37.331Z,8.15
2022-07-29T04:05:05.936Z,8.00
2022-07-29T04:07:33.978Z,7.68
2022-07-29T04:12:43.719Z,8.50
2022-07-29T04:15:14.468Z,7.90
2022-07-29T04:17:44.957Z,8.20
2022-07-29T04:20:16.385Z,7.88
2022-07-29T04:22:44.243Z,7.63
2022-07-29T04:25:15.216Z,8.32
2022-07-29T04:30:32.258Z,7.53
2022-07-29T04:33:02.172Z,7.90
2022-07-29T04:35:38.413Z,7.78
2022-07-29T04:38:15.919Z,7.57
2022-07-29T04:40:45.127Z,8.20
2022-07-29T04:43:15.987Z,7.60
2022-07-29T04:45:45.903Z,7.85
2022-07-29T04:48:14.476Z,8.68
2022-07-29T04:50:44.028Z,7.75
2022-07-29T04:53:12.874Z,8.05
2022-07-29T04:55:45.967Z,7.97
2022-07-29T04:58:13.819Z,8.40
2022-07-29T05:00:42.663Z,8.50
2022-07-29T05:03:18.249Z,7.40
2022-07-29T05:05:52.986Z,8.23
2022-07-29T05:08:21.660Z,7.68
2022-07-29T05:10:49.594Z,8.20
2022-07-29T05:13:17.714Z,8.10
2022-07-29T05:15:45.869Z,7.82
2022-07-29T05:18:15.706Z,7.70
2022-07-29T05:20:44.240Z,7.90
2022-07-29T05:23:14.194Z,7.60
2022-07-29T05:25:45.214Z,7.72
2022-07-29T05:28:13.609Z,7.30
2022-07-29T05:30:41.554Z,7.50
2022-07-29T05:33:34.737Z,7.32
2022-07-29T05:36:03.626Z,8.05
2022-07-29T05:38:33.812Z,7.15
2022-07-29T05:41:05.039Z,7.30
2022-07-29T05:43:36.153Z,6.90
2022-07-29T05:46:04.641Z,7.10
2022-07-29T05:48:32.596Z,7.80
2022-07-29T05:51:00.292Z,7.22
2022-07-29T05:53:33.172Z,7.28
2022-07-29T05:56:04.738Z,6.63
2022-07-29T05:58:33.784Z,6.53
2022-07-29T06:01:05.224Z,6.80
2022-07-29T06:03:34.369Z,6.57
2022-07-29T06:06:02.128Z,6.93
2022-07-29T06:08:35.001Z,6.45
2022-07-29T06:13:33.655Z,6.10
2022-07-29T06:16:04.414Z,6.10
2022-07-29T06:18:32.801Z,6.32
2022-07-29T06:21:01.191Z,6.15
2022-07-29T06:23:29.007Z,6.40
2022-07-29T06:26:00.284Z,6.13
2022-07-29T06:28:29.555Z,6.20
2022-07-29T06:30:57.948Z,6.30
2022-07-29T06:33:27.221Z,6.20
2022-07-29T06:35:55.957Z,6.38
2022-07-29T06:38:30.703Z,6.88
2022-07-29T06:46:07.622Z,6.43
2022-07-29T06:48:37.504Z,6.00
2022-07-29T06:51:09.995Z,6.22
2022-07-29T06:54:00.462Z,5.80
2022-07-29T06:56:29.583Z,6.40
2022-07-29T06:58:59.901Z,6.28
2022-07-29T07:01:29.553Z,5.82
2022-07-29T07:04:01.382Z,5.97
2022-07-29T07:09:04.082Z,6.00
2022-07-29T07:11:36.449Z,6.22
2022-07-29T07:14:05.874Z,6.38
2022-07-29T07:16:34.424Z,5.80
2022-07-29T07:19:05.605Z,6.25
2022-07-29T07:21:34.472Z,6.50
2022-07-29T07:24:04.899Z,6.55
2022-07-29T07:26:32.815Z,5.82
2022-07-29T07:29:01.697Z,5.90
2022-07-29T07:31:32.389Z,5.43
2022-07-29T07:34:00.610Z,6.10
2022-07-29T07:36:29.058Z,6.18
2022-07-29T07:38:57.503Z,6.22
2022-07-29T07:41:26.526Z,5.55
2022-07-29T07:44:00.782Z,5.78
2022-07-29T07:46:28.877Z,5.90
2022-07-29T07:48:58.665Z,5.80
2022-07-29T07:51:28.288Z,6.35
2022-07-29T07:53:59.365Z,6.03
2022-07-29T07:56:30.726Z,5.82
2022-07-29T07:59:02.742Z,5.90
2022-07-29T08:01:31.065Z,5.70
2022-07-29T08:04:27.106Z,6.00
2022-07-29T08:06:59.581Z,5.65
2022-07-29T08:09:30.404Z,5.43
2022-07-29T08:12:07.083Z,5.50
2022-07-29T08:14:38.588Z,5.40
2022-07-29T08:17:06.876Z,5.50
2022-07-29T08:19:37.898Z,5.63
2022-07-29T08:22:05.725Z,5.40
2022-07-29T08:24:48.613Z,5.80
2022-07-29T08:27:41.743Z,11.43
2022-07-29T08:30:07.171Z,5.50
2022-07-29T08:35:30.970Z,5.95
2022-07-29T08:38:05.982Z,5.47
2022-07-29T08:40:33.962Z,5.40
2022-07-29T08:43:07.252Z,5.22
2022-07-29T08:48:16.880Z,5.20
2022-07-29T08:50:51.685Z,5.30
2022-07-29T08:53:21.141Z,5.40
2022-07-29T08:55:51.063Z,5.30
2022-07-29T08:58:22.970Z,5.40
2022-07-29T09:03:24.120Z,5.47
2022-07-29T09:05:54.670Z,5.72
2022-07-29T09:08:22.899Z,5.30
2022-07-29T09:10:52.192Z,5.38
2022-07-29T09:13:20.684Z,5.28
2022-07-29T09:15:48.710Z,5.72
2022-07-29T09:18:38.134Z,5.25
2022-07-29T09:21:27.734Z,5.80
2022-07-29T09:24:15.863Z,5.70
2022-07-29T09:26:47.981Z,5.30
2022-07-29T09:29:17.529Z,5.90
2022-07-29T09:31:46.538Z,5.65
2022-07-29T09:34:17.123Z,5.65
2022-07-29T09:36:46.670Z,5.50
2022-07-29T09:39:17.771Z,5.85
2022-07-29T09:41:48.237Z,5.80
2022-07-29T09:44:16.443Z,5.68
2022-07-29T09:46:57.191Z,5.05
2022-07-29T09:49:26.337Z,5.70
2022-07-29T09:52:07.217Z,5.25
2022-07-29T09:54:38.890Z,5.50
2022-07-29T09:57:25.235Z,5.53
2022-07-29T09:59:59.567Z,5.50
2022-07-29T10:02:31.970Z,5.30
2022-07-29T10:05:02.346Z,5.68
2022-07-29T10:07:53.515Z,5.20
2022-07-29T10:10:28.305Z,5.30
2022-07-29T10:12:59.742Z,5.40
2022-07-29T10:15:33.200Z,5.50
2022-07-29T10:20:30.012Z,5.40
2022-07-29T10:23:00.904Z,4.90
2022-07-29T10:25:31.025Z,4.90
2022-07-29T10:28:02.797Z,5.13
2022-07-29T10:30:31.211Z,5.00
2022-07-29T10:33:18.583Z,5.20
2022-07-29T10:36:03.235Z,5.10
2022-07-29T10:38:50.815Z,5.30
2022-07-29T10:41:44.273Z,5.60
2022-07-29T10:44:23.198Z,5.47
2022-07-29T10:46:55.118Z,5.22
2022-07-29T10:52:05.969Z,5.35
2022-07-29T10:54:55.116Z,5.57
2022-07-29T10:57:53.692Z,5.40
2022-07-29T11:00:33.658Z,5.40
2022-07-29T11:03:10.518Z,5.30
2022-07-29T11:05:59.945Z,5.30
2022-07-29T11:08:29.114Z,5.78
2022-07-29T11:11:38.593Z,6.38
2022-07-29T11:14:10.307Z,5.50
2022-07-29T11:17:16.320Z,5.35
2022-07-29T11:19:51.940Z,5.30
2022-07-29T11:22:34.598Z,5.20
2022-07-29T11:27:47.030Z,5.20
2022-07-29T11:30:16.685Z,5.60
2022-07-29T11:32:50.355Z,5.40
2022-07-29T11:35:38.452Z,5.80
2022-07-29T11:38:32.280Z,5.63
2022-07-29T11:41:25.979Z,5.40
2022-07-29T11:43:56.325Z,5.40
2022-07-29T11:46:50.250Z,5.35
2022-07-29T11:49:31.992Z,5.70
2022-07-29T11:52:13.094Z,5.60
2022-07-29T11:54:58.064Z,5.85
2022-07-29T11:57:37.191Z,5.72
2022-07-29T12:00:14.421Z,5.93
2022-07-29T12:02:48.446Z,5.50
2022-07-29T12:05:35.997Z,5.50
2022-07-29T12:08:18.757Z,5.45
2022-07-29T12:10:52.501Z,5.50
2022-07-29T12:13:37.841Z,5.60
2022-07-29T12:16:07.484Z,5.47
2022-07-29T12:18:38.445Z,5.75
2022-07-29T12:21:09.648Z,5.63
2022-07-29T12:23:54.947Z,5.60
2022-07-29T12:26:26.604Z,5.43
2022-07-29T12:28:56.710Z,5.53
2022-07-29T12:31:42.451Z,5.20
2022-07-29T12:34:14.702Z,5.70
2022-07-29T12:36:46.363Z,6.60
2022-07-29T12:39:17.030Z,5.30
2022-07-29T12:41:47.390Z,5.80
2022-07-29T12:44:18.038Z,5.80
2022-07-29T12:46:49.032Z,6.22
2022-07-29T12:49:20.515Z,5.50
2022-07-29T12:51:48.790Z,5.50
2022-07-29T12:54:18.148Z,5.90
2022-07-29T12:56:46.995Z,6.03
2022-07-29T12:59:20.821Z,6.13
2022-07-29T13:01:52.395Z,6.20
2022-07-29T13:04:28.203Z,6.28
2022-07-29T13:07:05.777Z,6.55
2022-07-29T13:09:42.149Z,6.10
2022-07-29T13:12:12.269Z,6.45
2022-07-29T13:14:48.617Z,6.53
2022-07-29T13:17:18.227Z,7.82
2022-07-29T13:19:52.695Z,6.30
2022-07-29T13:22:25.210Z,5.60
2022-07-29T13:27:24.402Z,6.35
2022-07-29T13:29:58.949Z,6.07
2022-07-29T13:32:29.469Z,6.30
2022-07-29T13:34:57.730Z,5.88
2022-07-29T13:37:27.358Z,6.30
2022-07-29T13:39:57.202Z,6.70
2022-07-29T13:42:28.435Z,6.20
2022-07-29T13:47:32.257Z,6.10
2022-07-29T13:50:03.096Z,6.00
2022-07-29T13:52:31.066Z,5.70
2022-07-29T13:55:02.593Z,5.90
2022-07-29T13:57:31.284Z,5.90
2022-07-29T14:00:01.104Z,5.65
2022-07-29T14:02:30.010Z,5.70
2022-07-29T14:04:58.785Z,6.50
2022-07-29T14:07:29.616Z,5.90
2022-07-29T14:09:58.395Z,5.78
2022-07-29T14:12:26.613Z,5.75
2022-07-29T14:14:54.619Z,5.40
2022-07-29T14:17:24.913Z,5.20
2022-07-29T14:22:22.326Z,5.78
2022-07-29T14:24:54.107Z,5.50
2022-07-29T14:27:37.519Z,5.50
2022-07-29T14:30:08.190Z,6.47
2022-07-29T14:32:38.447Z,6.20
2022-07-29T14:35:07.673Z,5.97
2022-07-29T14:37:39.358Z,5.80
2022-07-29T14:40:10.528Z,5.53
2022-07-29T14:42:39.130Z,5.85
2022-07-29T14:45:09.377Z,5.95
2022-07-29T14:47:40.799Z,5.68
2022-07-29T14:50:12.165Z,5.68
2022-07-29T14:52:40.600Z,6.20
2022-07-29T14:55:19.623Z,5.85
2022-07-29T14:57:49.403Z,5.70
2022-07-29T15:00:18.402Z,5.70
2022-07-29T15:03:04.513Z,6.70
2022-07-29T15:05:37.505Z,5.50
2022-07-29T15:08:05.840Z,7.05
2022-07-29T15:10:34.199Z,5.82
2022-07-29T15:13:02.493Z,5.50
2022-07-29T15:15:30.633Z,5.40
2022-07-29T15:18:01.416Z,5.80
2022-07-29T15:20:29.841Z,5.60
2022-07-29T15:22:58.155Z,5.80
2022-07-29T15:25:27.942Z,5.70
2022-07-29T15:28:01.213Z,5.90
2022-07-29T15:30:33.291Z,5.97
2022-07-29T15:35:39.986Z,5.90
2022-07-29T15:38:10.548Z,5.50
2022-07-29T15:43:11.830Z,6.03
2022-07-29T15:45:41.440Z,6.05
2022-07-29T15:48:14.531Z,6.07
2022-07-29T15:50:43.003Z,5.60
2022-07-29T15:55:44.482Z,5.50
2022-07-29T15:58:12.910Z,5.90
2022-07-29T16:00:41.729Z,5.95
2022-07-29T16:03:11.425Z,5.60
2022-07-29T16:05:42.480Z,5.82
2022-07-29T16:08:11.164Z,6.22
2022-07-29T16:10:39.291Z,5.60
2022-07-29T16:13:07.722Z,5.90
2022-07-29T16:15:36.184Z,6.15
2022-07-29T16:18:04.424Z,5.80
2022-07-29T16:20:33.948Z,6.03
2022-07-29T16:23:04.994Z,5.63
2022-07-29T16:25:57.418Z,5.43
2022-07-29T16:28:21.529Z,5.60
2022-07-29T16:30:51.597Z,5.93
2022-07-29T16:33:19.706Z,5.60
2022-07-29T16:35:50.659Z,5.80
2022-07-29T16:38:19.360Z,5.60
2022-07-29T16:40:47.515Z,5.88
2022-07-29T16:43:16.371Z,6.03
2022-07-29T16:45:47.787Z,6.88
2022-07-29T16:48:18.136Z,7.53
2022-07-29T16:50:46.899Z,6.28
2022-07-29T16:53:17.090Z,5.68
2022-07-29T16:55:45.604Z,5.70
2022-07-29T16:58:14.795Z,5.95
2022-07-29T17:00:43.038Z,6.13
2022-07-29T17:03:11.144Z,5.60
2022-07-29T17:05:52.038Z,5.57
2022-07-29T17:10:57.743Z,5.40
2022-07-29T17:13:27.195Z,5.43
2022-07-29T17:16:00.646Z,5.70
2022-07-29T17:18:29.255Z,5.60
2022-07-29T17:20:57.205Z,5.45
2022-07-29T17:25:58.253Z,5.63
2022-07-29T17:28:26.449Z,5.45
2022-07-29T17:30:54.627Z,5.00
2022-07-29T17:33:24.715Z,5.32
2022-07-29T17:36:11.320Z,5.18
2022-07-29T17:38:41.955Z,5.38
2022-07-29T17:41:10.299Z,5.50
2022-07-29T17:43:38.166Z,5.78
2022-07-29T17:46:08.777Z,5.95
2022-07-29T17:48:38.275Z,5.80
2022-07-29T17:51:06.376Z,5.55
2022-07-29T17:53:34.659Z,5.47
2022-07-29T17:56:08.683Z,5.60
2022-07-29T17:58:36.896Z,5.53
2022-07-29T18:01:05.201Z,5.78
2022-07-29T18:03:34.573Z,10.27
2022-07-29T18:06:06.337Z,5.97
2022-07-29T18:08:35.023Z,7.57
2022-07-29T18:11:04.310Z,6.13
2022-07-29T18:13:35.468Z,5.32
2022-07-29T18:16:03.934Z,5.43
2022-07-29T18:18:32.019Z,6.03
2022-07-29T18:21:01.502Z,5.47
2022-07-29T18:23:29.327Z,8.75
2022-07-29T18:25:57.232Z,6.47
2022-07-29T18:28:25.470Z,7.70
2022-07-29T18:30:56.802Z,6.70
2022-07-29T18:33:28.994Z,7.53
2022-07-29T18:36:06.126Z,8.95
2022-07-29T18:38:39.711Z,6.97
2022-07-29T18:41:08.270Z,5.95
2022-07-29T18:43:36.216Z,6.38
2022-07-29T18:46:07.150Z,13.52
2022-07-29T18:48:35.519Z,7.43
2022-07-29T18:51:09.236Z,6.10
2022-07-29T18:53:38.733Z,6.40
2022-07-29T18:56:09.844Z,5.90
2022-07-29T18:58:42.273Z,6.18
2022-07-29T19:03:46.150Z,7.45
2022-07-29T19:06:15.542Z,6.47
2022-07-29T19:08:43.695Z,6.10
2022-07-29T19:11:15.395Z,5.78
2022-07-29T19:13:43.805Z,5.80
2022-07-29T19:16:15.765Z,5.97
2022-07-29T19:18:48.715Z,5.55
2022-07-29T19:21:21.509Z,5.45
2022-07-29T19:24:01.696Z,5.88
2022-07-29T19:26:44.379Z,6.45
2022-07-29T19:29:12.688Z,6.20
2022-07-29T19:31:41.477Z,6.63
2022-07-29T19:34:12.615Z,5.93
2022-07-29T19:36:43.074Z,6.40
2022-07-29T19:39:11.879Z,6.10
2022-07-29T19:41:40.908Z,6.10
2022-07-29T19:44:08.975Z,6.22
2022-07-29T19:46:40.621Z,6.20
2022-07-29T19:49:10.873Z,6.18
2022-07-29T19:51:45.468Z,6.35
2022-07-29T19:54:14.828Z,5.93
2022-07-29T19:56:46.296Z,5.93
2022-07-29T19:59:14.157Z,6.00
2022-07-29T20:01:44.134Z,5.80
2022-07-29T20:04:15.695Z,5.85
2022-07-29T20:09:20.442Z,5.88
2022-07-29T20:11:52.062Z,6.38
2022-07-29T20:14:26.624Z,6.40
2022-07-29T20:19:39.904Z,5.90
2022-07-29T20:24:38.915Z,5.80
2022-07-29T20:27:06.940Z,6.60
2022-07-29T20:29:42.894Z,6.55
2022-07-29T20:32:12.868Z,5.88
2022-07-29T20:34:42.322Z,5.80
2022-07-29T20:37:11.819Z,5.88
2022-07-29T20:39:39.923Z,6.13
2022-07-29T20:42:08.966Z,6.47
2022-07-29T20:44:37.537Z,6.10
2022-07-29T20:47:05.781Z,6.13
2022-07-29T20:49:37.006Z,6.30
2022-07-29T20:52:10.637Z,6.40
2022-07-29T20:54:43.050Z,5.75
2022-07-29T20:57:16.682Z,5.95
2022-07-29T20:59:45.876Z,5.50
2022-07-29T21:02:14.511Z,5.80
2022-07-29T21:04:44.055Z,5.60
2022-07-29T21:07:13.954Z,5.72
2022-07-29T21:09:42.670Z,5.30
2022-07-29T21:12:11.640Z,5.95
2022-07-29T21:14:39.595Z,5.70
2022-07-29T21:17:08.601Z,6.07
2022-07-29T21:19:37.277Z,6.20
2022-07-29T21:22:08.985Z,6.15
2022-07-29T21:24:40.411Z,5.70
2022-07-29T21:27:27.297Z,5.90
2022-07-29T21:29:56.367Z,5.82
2022-07-29T21:32:31.042Z,6.03
2022-07-29T21:34:59.977Z,5.70
2022-07-29T21:37:28.611Z,5.63
2022-07-29T21:39:58.194Z,5.80
2022-07-29T21:42:25.986Z,5.97
2022-07-29T21:44:54.962Z,5.57
2022-07-29T21:47:23.166Z,5.60
2022-07-29T21:49:52.109Z,6.07
2022-07-29T21:54:51.064Z,5.70
2022-07-29T21:57:21.514Z,5.75
2022-07-29T21:59:53.971Z,5.70
2022-07-29T22:02:23.257Z,5.78
2022-07-29T22:04:52.035Z,6.00
2022-07-29T22:07:20.157Z,5.80
2022-07-29T22:09:48.119Z,6.10
2022-07-29T22:12:16.596Z,5.68
2022-07-29T22:14:50.182Z,5.95
2022-07-29T22:17:21.961Z,5.97
2022-07-29T22:19:49.860Z,5.85
2022-07-29T22:22:19.270Z,5.82
2022-07-29T22:27:20.170Z,5.70
2022-07-29T22:29:51.108Z,5.53
2022-07-29T22:32:18.797Z,5.75
2022-07-29T22:34:47.140Z,5.60
2022-07-29T22:37:15.660Z,6.05
2022-07-29T22:39:43.590Z,5.70
2022-07-29T22:42:11.747Z,5.65
2022-07-29T22:44:40.010Z,5.50
2022-07-29T22:47:14.105Z,5.70
2022-07-29T22:49:43.016Z,5.45
2022-07-29T22:52:11.481Z,6.03
2022-07-29T22:54:42.549Z,5.30
2022-07-29T22:57:10.722Z,5.80
2022-07-29T22:59:38.771Z,5.30
2022-07-29T23:02:07.325Z,5.30
2022-07-29T23:04:38.001Z,5.32
2022-07-29T23:07:08.181Z,5.40
2022-07-29T23:09:36.759Z,5.10
2022-07-29T23:12:04.991Z,5.10
2022-07-29T23:14:33.125Z,5.40
2022-07-29T23:17:03.003Z,5.25
2022-07-29T23:19:32.187Z,5.47
2022-07-29T23:22:00.018Z,5.45
2022-07-29T23:24:31.510Z,5.78
2022-07-29T23:26:59.216Z,5.30
2022-07-29T23:29:28.325Z,5.18
2022-07-29T23:34:25.652Z,5.00
2022-07-29T23:36:53.490Z,5.10
2022-07-29T23:39:21.691Z,5.28
2022-07-29T23:41:53.402Z,5.40
2022-07-29T23:44:23.218Z,5.30
2022-07-29T23:49:21.754Z,5.82
2022-07-29T23:51:49.601Z,5.38
2022-07-29T23:54:18.061Z,5.47
2022-07-29T23:56:46.486Z,5.40
2022-07-29T23:59:14.643Z,5.25
